Time;durP1;ratioP1;P1;durP2;ratioP2;P2;SDS_P1;SDS_P2;PMS_P1;PMS_P2;Temp;Humidity;BMP_temperature;BMP_pressure;BME280_temperature;BME280_humidity;BME280_pressure;Samples;Min_cycle;Max_cycle;Signal;HPM_P1;HPM_P2
2021/01/13 00:00:45;;;;;;;;;;;22.20;27.30;;;;;;491499;240;2180;-69
2021/01/13 00:02:47;;;;;;;;;;;22.20;27.20;;;;;;491603;240;1119;-69
2021/01/13 00:04:48;;;;;;;;;;;22.20;27.20;;;;;;491682;240;1026;-69
2021/01/13 00:06:50;;;;;;;;;;;22.20;27.20;;;;;;491487;240;1093;-69
2021/01/13 00:08:51;;;;;;;;;;;22.20;27.20;;;;;;491663;240;1000;-69
2021/01/13 00:10:52;;;;;;;;;;;22.10;27.20;;;;;;491529;240;1184;-69
2021/01/13 00:12:53;;;;;;;;;;;22.10;27.20;;;;;;491624;240;945;-70
2021/01/13 00:14:55;;;;;;;;;;;22.10;27.10;;;;;;491565;240;982;-69
2021/01/13 00:16:56;;;;;;;;;;;22.10;27.10;;;;;;491504;240;1218;-70
2021/01/13 00:18:58;;;;;;;;;;;22.10;27.10;;;;;;491643;240;1134;-70
2021/01/13 00:20:59;;;;;;;;;;;22.10;27.10;;;;;;491520;240;2152;-70
2021/01/13 00:23:00;;;;;;;;;;;22.10;27.10;;;;;;491566;240;1185;-69
2021/01/13 00:25:01;;;;;;;;;;;22.10;27.10;;;;;;491560;240;1512;-69
2021/01/13 00:27:03;;;;;;;;;;;22.10;27.10;;;;;;491537;240;1072;-70
2021/01/13 00:29:04;;;;;;;;;;;22.10;27.10;;;;;;491607;240;1062;-70
2021/01/13 00:31:06;;;;;;;;;;;22.10;27.00;;;;;;491563;240;1222;-69
2021/01/13 00:33:07;;;;;;;;;;;22.20;27.00;;;;;;491502;240;1091;-70
2021/01/13 00:35:08;;;;;;;;;;;22.10;27.00;;;;;;491594;240;927;-70
2021/01/13 00:37:09;;;;;;;;;;;22.10;27.00;;;;;;491557;240;1153;-70
2021/01/13 00:39:11;;;;;;;;;;;22.10;26.90;;;;;;491587;240;961;-70
2021/01/13 00:41:13;;;;;;;;;;;22.10;26.90;;;;;;491540;240;2128;-70
2021/01/13 00:43:14;;;;;;;;;;;22.10;26.90;;;;;;491599;240;1077;-70
2021/01/13 00:45:16;;;;;;;;;;;22.10;26.90;;;;;;491570;240;1095;-70
2021/01/13 00:47:17;;;;;;;;;;;22.20;26.90;;;;;;491648;240;1012;-69
2021/01/13 00:49:18;;;;;;;;;;;22.10;26.80;;;;;;491665;240;944;-69
2021/01/13 00:51:20;;;;;;;;;;;22.20;26.90;;;;;;491589;240;1143;-70
2021/01/13 00:53:21;;;;;;;;;;;22.20;26.80;;;;;;491652;240;1085;-70
2021/01/13 00:55:22;;;;;;;;;;;22.10;26.90;;;;;;491740;240;1216;-70
2021/01/13 00:57:23;;;;;;;;;;;22.10;26.90;;;;;;491612;240;1077;-70
2021/01/13 00:59:25;;;;;;;;;;;22.10;26.90;;;;;;491680;240;933;-70
2021/01/13 01:01:26;;;;;;;;;;;22.00;26.80;;;;;;491572;240;2189;-70
2021/01/13 01:03:27;;;;;;;;;;;22.00;26.80;;;;;;491637;240;1097;-70
2021/01/13 01:05:29;;;;;;;;;;;22.00;26.70;;;;;;491585;240;940;-69
2021/01/13 01:07:30;;;;;;;;;;;22.10;26.80;;;;;;491596;240;1116;-70
2021/01/13 01:09:31;;;;;;;;;;;22.10;26.80;;;;;;491623;240;981;-70
2021/01/13 01:11:32;;;;;;;;;;;22.10;26.80;;;;;;491631;240;1177;-70
2021/01/13 01:13:34;;;;;;;;;;;22.10;26.70;;;;;;491667;240;989;-70
2021/01/13 01:15:35;;;;;;;;;;;22.10;26.70;;;;;;491617;240;1188;-69
2021/01/13 01:17:36;;;;;;;;;;;22.00;26.70;;;;;;491626;240;1118;-70
2021/01/13 01:19:38;;;;;;;;;;;22.00;26.70;;;;;;491634;240;984;-70
2021/01/13 01:21:39;;;;;;;;;;;22.00;26.70;;;;;;491524;240;2187;-70
2021/01/13 01:23:40;;;;;;;;;;;22.00;26.70;;;;;;491657;240;1201;-70
2021/01/13 01:25:41;;;;;;;;;;;22.00;26.70;;;;;;491631;240;1098;-70
2021/01/13 01:27:43;;;;;;;;;;;22.00;26.70;;;;;;491629;240;1082;-70
2021/01/13 01:29:44;;;;;;;;;;;22.00;26.60;;;;;;491633;240;1112;-70
2021/01/13 01:31:45;;;;;;;;;;;22.00;26.60;;;;;;491607;240;1195;-70
2021/01/13 01:33:47;;;;;;;;;;;22.00;26.60;;;;;;491586;240;1166;-70
2021/01/13 01:35:48;;;;;;;;;;;22.00;26.60;;;;;;491608;240;1007;-70
2021/01/13 01:37:49;;;;;;;;;;;22.00;26.60;;;;;;491636;240;1127;-70
2021/01/13 01:39:51;;;;;;;;;;;22.00;26.60;;;;;;491665;240;924;-70
2021/01/13 01:41:52;;;;;;;;;;;22.00;26.60;;;;;;491576;240;2191;-70
2021/01/13 01:43:53;;;;;;;;;;;22.00;26.60;;;;;;491652;240;1075;-69
2021/01/13 01:45:54;;;;;;;;;;;22.00;26.60;;;;;;491621;240;1079;-69
2021/01/13 01:47:56;;;;;;;;;;;22.00;26.60;;;;;;491644;240;1162;-69
2021/01/13 01:49:57;;;;;;;;;;;22.00;26.60;;;;;;491660;240;1054;-69
2021/01/13 01:51:58;;;;;;;;;;;22.00;26.60;;;;;;491670;240;1114;-70
2021/01/13 01:54:00;;;;;;;;;;;21.90;26.60;;;;;;491679;240;972;-70
2021/01/13 01:56:01;;;;;;;;;;;21.90;26.60;;;;;;491628;240;1108;-70
2021/01/13 01:58:02;;;;;;;;;;;21.90;26.60;;;;;;491580;240;1215;-69
2021/01/13 02:00:05;;;;;;;;;;;22.00;26.60;;;;;;491641;240;942;-69
2021/01/13 02:02:05;;;;;;;;;;;22.00;26.60;;;;;;491532;242;2191;-69
2021/01/13 02:04:06;;;;;;;;;;;21.90;26.50;;;;;;491570;240;1068;-70
2021/01/13 02:06:07;;;;;;;;;;;21.90;26.50;;;;;;491506;240;1130;-70
2021/01/13 02:08:09;;;;;;;;;;;21.90;26.50;;;;;;491652;240;1168;-70
2021/01/13 02:10:10;;;;;;;;;;;21.90;26.50;;;;;;491623;240;1083;-69
2021/01/13 02:12:11;;;;;;;;;;;21.90;26.50;;;;;;491572;240;1175;-69
2021/01/13 02:14:12;;;;;;;;;;;21.90;26.50;;;;;;491651;240;1062;-70
2021/01/13 02:16:14;;;;;;;;;;;21.90;26.50;;;;;;491537;240;1072;-70
2021/01/13 02:18:15;;;;;;;;;;;21.90;26.50;;;;;;491644;240;956;-69
2021/01/13 02:20:16;;;;;;;;;;;21.90;26.50;;;;;;491641;240;1063;-69
2021/01/13 02:22:18;;;;;;;;;;;21.90;26.50;;;;;;491501;240;2187;-70
2021/01/13 02:24:19;;;;;;;;;;;21.90;26.50;;;;;;491582;240;946;-70
2021/01/13 02:26:20;;;;;;;;;;;21.90;26.50;;;;;;491504;240;1090;-70
2021/01/13 02:28:22;;;;;;;;;;;21.90;26.50;;;;;;491619;240;931;-70
2021/01/13 02:30:23;;;;;;;;;;;21.90;26.50;;;;;;491621;240;1115;-70
2021/01/13 02:32:24;;;;;;;;;;;21.90;26.50;;;;;;491618;240;1117;-70
2021/01/13 02:34:25;;;;;;;;;;;21.90;26.50;;;;;;491821;240;924;-70
2021/01/13 02:36:27;;;;;;;;;;;21.90;26.50;;;;;;491579;240;1056;-70
2021/01/13 02:38:28;;;;;;;;;;;21.90;26.50;;;;;;491768;240;1148;-70
2021/01/13 02:40:29;;;;;;;;;;;21.90;26.50;;;;;;491623;240;1203;-70
2021/01/13 02:42:30;;;;;;;;;;;21.90;26.50;;;;;;491593;240;2140;-69
2021/01/13 02:44:32;;;;;;;;;;;21.90;26.50;;;;;;491684;240;981;-69
2021/01/13 02:46:33;;;;;;;;;;;21.90;26.50;;;;;;491633;240;1115;-69
2021/01/13 02:48:34;;;;;;;;;;;21.90;26.50;;;;;;491674;240;1071;-71
2021/01/13 02:50:36;;;;;;;;;;;21.90;26.50;;;;;;491547;240;1293;-70
2021/01/13 02:52:37;;;;;;;;;;;21.90;26.50;;;;;;491645;240;1075;-69
2021/01/13 02:54:39;;;;;;;;;;;21.90;26.50;;;;;;491675;240;1100;-69
2021/01/13 02:56:40;;;;;;;;;;;21.90;26.40;;;;;;491516;240;1126;-69
2021/01/13 02:58:41;;;;;;;;;;;21.90;26.40;;;;;;491612;240;1080;-70
2021/01/13 03:00:42;;;;;;;;;;;21.90;26.40;;;;;;491512;240;1216;-70
2021/01/13 03:02:44;;;;;;;;;;;21.90;26.40;;;;;;491601;240;2180;-69
2021/01/13 03:04:45;;;;;;;;;;;21.90;26.40;;;;;;491539;240;1077;-70
2021/01/13 03:06:46;;;;;;;;;;;21.80;26.40;;;;;;491490;240;1081;-70
2021/01/13 03:08:48;;;;;;;;;;;21.90;26.40;;;;;;491505;240;1190;-70
2021/01/13 03:10:49;;;;;;;;;;;21.90;26.40;;;;;;491479;240;1178;-70
2021/01/13 03:12:50;;;;;;;;;;;21.90;26.40;;;;;;491594;240;1148;-70
2021/01/13 03:14:52;;;;;;;;;;;21.90;26.40;;;;;;491570;240;951;-70
2021/01/13 03:16:53;;;;;;;;;;;21.90;26.40;;;;;;491500;240;1156;-70
2021/01/13 03:18:54;;;;;;;;;;;21.90;26.40;;;;;;491696;240;954;-70
2021/01/13 03:20:55;;;;;;;;;;;21.90;26.30;;;;;;491620;240;1199;-69
2021/01/13 03:22:57;;;;;;;;;;;21.90;26.30;;;;;;491573;240;2184;-70
2021/01/13 03:24:58;;;;;;;;;;;21.90;26.30;;;;;;491663;240;1218;-71
2021/01/13 03:27:00;;;;;;;;;;;21.90;26.30;;;;;;491512;240;1110;-70
2021/01/13 03:29:03;;;;;;;;;;;21.90;26.30;;;;;;491595;240;1165;-70
2021/01/13 03:31:04;;;;;;;;;;;21.90;26.30;;;;;;491567;240;1297;-70
2021/01/13 03:33:05;;;;;;;;;;;21.90;26.30;;;;;;491648;240;1028;-70
2021/01/13 03:35:06;;;;;;;;;;;21.90;26.30;;;;;;491604;240;1145;-71
2021/01/13 03:37:08;;;;;;;;;;;21.90;26.30;;;;;;491499;240;1118;-70
2021/01/13 03:39:09;;;;;;;;;;;21.90;26.30;;;;;;491527;240;1120;-70
2021/01/13 03:41:11;;;;;;;;;;;21.90;26.30;;;;;;491504;240;1337;-70
2021/01/13 03:43:12;;;;;;;;;;;21.90;26.30;;;;;;491618;240;2188;-70
2021/01/13 03:45:13;;;;;;;;;;;21.90;26.20;;;;;;491609;240;1207;-69
2021/01/13 03:47:14;;;;;;;;;;;21.90;26.20;;;;;;491515;240;1106;-70
2021/01/13 03:49:16;;;;;;;;;;;21.90;26.20;;;;;;491593;240;1124;-70
2021/01/13 03:51:17;;;;;;;;;;;21.90;26.20;;;;;;491561;240;1209;-70
2021/01/13 03:53:18;;;;;;;;;;;21.90;26.20;;;;;;491563;240;1159;-69
2021/01/13 03:55:20;;;;;;;;;;;21.90;26.20;;;;;;491683;240;1053;-70
2021/01/13 03:57:21;;;;;;;;;;;21.90;26.20;;;;;;491565;240;1062;-70
2021/01/13 03:59:22;;;;;;;;;;;21.90;26.20;;;;;;491644;240;926;-70
2021/01/13 04:01:23;;;;;;;;;;;21.90;26.30;;;;;;491687;240;1204;-70
2021/01/13 04:03:25;;;;;;;;;;;21.90;26.30;;;;;;491609;240;2179;-70
2021/01/13 04:05:26;;;;;;;;;;;21.90;26.30;;;;;;491599;240;1023;-70
2021/01/13 04:07:27;;;;;;;;;;;21.90;26.30;;;;;;491574;240;1230;-70
2021/01/13 04:09:29;;;;;;;;;;;21.90;26.30;;;;;;491668;240;1205;-70
2021/01/13 04:11:30;;;;;;;;;;;21.90;26.30;;;;;;491535;240;1399;-70
2021/01/13 04:13:32;;;;;;;;;;;21.80;26.30;;;;;;491625;240;953;-70
2021/01/13 04:15:32;;;;;;;;;;;21.90;26.30;;;;;;491583;240;1091;-69
2021/01/13 04:17:34;;;;;;;;;;;21.80;26.30;;;;;;491691;240;1034;-69
2021/01/13 04:19:35;;;;;;;;;;;21.90;26.30;;;;;;491657;240;1053;-70
2021/01/13 04:21:36;;;;;;;;;;;21.90;26.30;;;;;;491569;240;1142;-69
2021/01/13 04:23:37;;;;;;;;;;;21.90;26.30;;;;;;491576;238;2196;-70
2021/01/13 04:25:39;;;;;;;;;;;21.90;26.30;;;;;;491554;240;1090;-70
2021/01/13 04:27:40;;;;;;;;;;;21.80;26.20;;;;;;491645;240;970;-70
2021/01/13 04:29:41;;;;;;;;;;;21.90;26.30;;;;;;491708;240;929;-69
2021/01/13 04:31:43;;;;;;;;;;;21.80;26.20;;;;;;491667;240;1219;-69
2021/01/13 04:33:44;;;;;;;;;;;21.80;26.30;;;;;;491671;240;973;-69
2021/01/13 04:35:45;;;;;;;;;;;21.80;26.20;;;;;;491666;240;1094;-70
2021/01/13 04:37:46;;;;;;;;;;;21.80;26.20;;;;;;491669;240;1001;-69
2021/01/13 04:39:48;;;;;;;;;;;21.90;26.30;;;;;;491706;240;1214;-69
2021/01/13 04:41:49;;;;;;;;;;;21.90;26.30;;;;;;491629;240;1018;-70
2021/01/13 04:43:50;;;;;;;;;;;21.80;26.20;;;;;;491636;240;2116;-70
2021/01/13 04:45:52;;;;;;;;;;;21.90;26.20;;;;;;491557;240;1348;-70
2021/01/13 04:47:53;;;;;;;;;;;21.80;26.20;;;;;;491539;240;1063;-70
2021/01/13 04:49:54;;;;;;;;;;;21.80;26.20;;;;;;491647;240;1064;-70
2021/01/13 04:51:55;;;;;;;;;;;21.90;26.30;;;;;;491586;240;1065;-70
2021/01/13 04:53:57;;;;;;;;;;;21.80;26.20;;;;;;491642;240;1120;-70
2021/01/13 04:55:58;;;;;;;;;;;21.80;26.20;;;;;;491580;240;1129;-70
2021/01/13 04:57:59;;;;;;;;;;;21.80;26.20;;;;;;491628;240;948;-69
2021/01/13 05:00:00;;;;;;;;;;;21.80;26.20;;;;;;491626;240;1095;-70
2021/01/13 05:02:02;;;;;;;;;;;21.80;26.20;;;;;;491633;240;971;-70
2021/01/13 05:04:03;;;;;;;;;;;21.80;26.20;;;;;;491606;240;2137;-70
2021/01/13 05:06:04;;;;;;;;;;;21.80;26.20;;;;;;491607;240;959;-70
2021/01/13 05:08:06;;;;;;;;;;;21.90;26.20;;;;;;491596;240;1054;-70
2021/01/13 05:10:07;;;;;;;;;;;21.90;26.20;;;;;;491635;240;1165;-70
2021/01/13 05:12:08;;;;;;;;;;;21.90;26.20;;;;;;491564;240;1021;-70
2021/01/13 05:14:09;;;;;;;;;;;21.90;26.20;;;;;;491583;240;999;-70
2021/01/13 05:16:11;;;;;;;;;;;21.90;26.20;;;;;;491464;240;995;-70
2021/01/13 05:18:13;;;;;;;;;;;21.80;26.20;;;;;;491627;240;1043;-70
2021/01/13 05:20:13;;;;;;;;;;;21.90;26.20;;;;;;491625;240;1183;-70
2021/01/13 05:22:15;;;;;;;;;;;21.90;26.20;;;;;;491573;240;1041;-69
2021/01/13 05:24:16;;;;;;;;;;;21.90;26.20;;;;;;491488;240;2107;-69
2021/01/13 05:26:17;;;;;;;;;;;21.90;26.20;;;;;;491497;240;1163;-69
2021/01/13 05:28:19;;;;;;;;;;;21.90;26.20;;;;;;491459;240;1073;-70
2021/01/13 05:30:20;;;;;;;;;;;21.90;26.10;;;;;;491525;240;1200;-70
2021/01/13 05:32:21;;;;;;;;;;;21.90;26.10;;;;;;491466;240;1341;-70
2021/01/13 05:34:22;;;;;;;;;;;21.90;26.10;;;;;;491442;240;1020;-70
2021/01/13 05:36:24;;;;;;;;;;;21.90;26.20;;;;;;491378;240;1243;-70
2021/01/13 05:38:25;;;;;;;;;;;21.80;26.10;;;;;;491429;240;1103;-70
2021/01/13 05:40:26;;;;;;;;;;;21.90;26.10;;;;;;491477;240;1199;-70
2021/01/13 05:42:28;;;;;;;;;;;21.80;26.10;;;;;;491347;240;2208;-69
2021/01/13 05:44:29;;;;;;;;;;;21.80;26.10;;;;;;491487;240;1098;-69
2021/01/13 05:46:30;;;;;;;;;;;21.90;26.10;;;;;;491445;240;1193;-69
2021/01/13 05:48:31;;;;;;;;;;;21.90;26.10;;;;;;491444;240;1095;-69
2021/01/13 05:50:33;;;;;;;;;;;21.90;26.10;;;;;;491448;240;1121;-69
2021/01/13 05:52:34;;;;;;;;;;;21.90;26.10;;;;;;491444;240;1109;-69
2021/01/13 05:54:35;;;;;;;;;;;21.80;26.10;;;;;;491483;240;1094;-69
2021/01/13 05:56:37;;;;;;;;;;;21.90;26.10;;;;;;491300;240;1166;-69
2021/01/13 05:58:38;;;;;;;;;;;21.90;26.10;;;;;;491372;240;1075;-69
2021/01/13 06:00:40;;;;;;;;;;;21.80;26.10;;;;;;491392;240;1120;-69
2021/01/13 06:02:41;;;;;;;;;;;21.80;26.10;;;;;;491339;240;2140;-69
2021/01/13 06:04:42;;;;;;;;;;;21.80;26.10;;;;;;491304;240;1052;-69
2021/01/13 06:06:44;;;;;;;;;;;21.80;26.10;;;;;;491233;240;1113;-70
2021/01/13 06:08:45;;;;;;;;;;;21.90;26.10;;;;;;491385;240;1209;-69
2021/01/13 06:10:46;;;;;;;;;;;21.90;26.10;;;;;;491416;240;1152;-70
2021/01/13 06:12:47;;;;;;;;;;;21.80;26.00;;;;;;491321;240;1107;-70
2021/01/13 06:14:49;;;;;;;;;;;21.80;26.00;;;;;;491439;240;1089;-70
2021/01/13 06:16:50;;;;;;;;;;;21.80;26.00;;;;;;491382;240;1241;-69
2021/01/13 06:18:51;;;;;;;;;;;21.80;26.00;;;;;;491454;240;1046;-69
2021/01/13 06:20:53;;;;;;;;;;;21.80;26.00;;;;;;491444;240;1080;-69
2021/01/13 06:22:54;;;;;;;;;;;21.80;26.00;;;;;;491307;240;2141;-69
2021/01/13 06:24:55;;;;;;;;;;;21.80;25.90;;;;;;491351;240;1139;-70
2021/01/13 06:26:57;;;;;;;;;;;21.80;26.00;;;;;;491356;240;1298;-70
2021/01/13 06:28:58;;;;;;;;;;;21.80;26.00;;;;;;491247;240;1138;-70
2021/01/13 06:30:59;;;;;;;;;;;21.80;26.00;;;;;;491373;240;1042;-70
2021/01/13 06:33:00;;;;;;;;;;;21.80;26.00;;;;;;491328;240;1024;-70
2021/01/13 06:35:02;;;;;;;;;;;21.80;26.00;;;;;;491376;240;1006;-70
2021/01/13 06:37:03;;;;;;;;;;;21.80;25.90;;;;;;491355;240;1214;-70
2021/01/13 06:39:04;;;;;;;;;;;21.80;25.90;;;;;;491286;240;1209;-70
2021/01/13 06:41:06;;;;;;;;;;;21.80;25.90;;;;;;491290;240;1184;-70
2021/01/13 06:43:07;;;;;;;;;;;21.80;25.90;;;;;;491282;240;2180;-70
2021/01/13 06:45:08;;;;;;;;;;;21.70;25.90;;;;;;491166;240;1079;-70
2021/01/13 06:47:09;;;;;;;;;;;21.70;25.90;;;;;;491110;240;1089;-70
2021/01/13 06:49:11;;;;;;;;;;;21.70;25.90;;;;;;491210;240;1047;-70
2021/01/13 06:51:12;;;;;;;;;;;21.70;25.90;;;;;;491179;240;1114;-70
2021/01/13 06:53:13;;;;;;;;;;;21.60;25.90;;;;;;491266;240;1128;-70
2021/01/13 06:55:15;;;;;;;;;;;21.70;25.90;;;;;;491328;240;1140;-70
2021/01/13 06:57:16;;;;;;;;;;;21.60;25.90;;;;;;491151;240;1399;-70
2021/01/13 06:59:17;;;;;;;;;;;21.70;25.80;;;;;;491195;240;1124;-70
2021/01/13 07:01:18;;;;;;;;;;;21.60;25.80;;;;;;491019;240;1156;-70
2021/01/13 07:03:20;;;;;;;;;;;21.70;25.90;;;;;;491078;240;2179;-70
2021/01/13 07:05:21;;;;;;;;;;;21.70;25.80;;;;;;491215;240;1063;-70
2021/01/13 07:07:22;;;;;;;;;;;21.60;25.80;;;;;;491033;240;1107;-70
2021/01/13 07:09:23;;;;;;;;;;;21.70;25.80;;;;;;491184;240;1106;-70
2021/01/13 07:11:25;;;;;;;;;;;21.60;25.80;;;;;;491107;240;1415;-70
2021/01/13 07:13:26;;;;;;;;;;;21.60;25.80;;;;;;491151;240;1091;-70
2021/01/13 07:15:28;;;;;;;;;;;21.60;25.80;;;;;;491062;240;1032;-70
2021/01/13 07:17:29;;;;;;;;;;;21.60;25.80;;;;;;491187;240;1269;-70
2021/01/13 07:19:30;;;;;;;;;;;21.60;25.80;;;;;;491189;240;1057;-70
2021/01/13 07:21:31;;;;;;;;;;;21.70;25.80;;;;;;491137;240;1219;-70
2021/01/13 07:23:33;;;;;;;;;;;21.70;25.80;;;;;;491198;240;2199;-70
2021/01/13 07:25:34;;;;;;;;;;;21.60;25.80;;;;;;491055;240;1158;-69
2021/01/13 07:27:35;;;;;;;;;;;21.60;25.80;;;;;;491065;240;1260;-70
2021/01/13 07:29:36;;;;;;;;;;;21.60;25.80;;;;;;490881;240;1040;-70
2021/01/13 07:31:38;;;;;;;;;;;21.60;25.80;;;;;;490799;240;1168;-70
2021/01/13 07:33:39;;;;;;;;;;;21.60;25.80;;;;;;491127;240;1051;-70
2021/01/13 07:35:40;;;;;;;;;;;21.60;25.80;;;;;;491156;240;1131;-70
2021/01/13 07:37:42;;;;;;;;;;;21.60;25.90;;;;;;491148;240;1146;-70
2021/01/13 07:39:43;;;;;;;;;;;21.60;25.90;;;;;;491044;240;1234;-70
2021/01/13 07:41:44;;;;;;;;;;;21.50;25.90;;;;;;490967;240;1142;-70
2021/01/13 07:43:46;;;;;;;;;;;21.50;25.90;;;;;;490932;240;2191;-70
2021/01/13 07:45:47;;;;;;;;;;;21.50;25.90;;;;;;491017;240;1083;-70
2021/01/13 07:47:48;;;;;;;;;;;21.50;25.90;;;;;;491070;240;1203;-70
2021/01/13 07:49:50;;;;;;;;;;;21.50;25.90;;;;;;491140;240;1010;-70
2021/01/13 07:51:51;;;;;;;;;;;21.40;25.90;;;;;;491058;240;1102;-70
2021/01/13 07:53:52;;;;;;;;;;;21.40;25.90;;;;;;490870;240;1024;-70
2021/01/13 07:55:53;;;;;;;;;;;21.40;25.90;;;;;;490977;240;1104;-70
2021/01/13 07:57:55;;;;;;;;;;;21.40;25.90;;;;;;490875;240;1332;-70
2021/01/13 07:59:56;;;;;;;;;;;21.40;25.90;;;;;;490832;240;1135;-69
2021/01/13 08:01:57;;;;;;;;;;;21.40;25.90;;;;;;490948;240;1074;-70
2021/01/13 08:03:59;;;;;;;;;;;21.40;25.90;;;;;;490792;240;2187;-70
2021/01/13 08:06:00;;;;;;;;;;;21.40;25.90;;;;;;490801;240;1142;-70
2021/01/13 08:08:01;;;;;;;;;;;21.40;25.90;;;;;;490926;240;1238;-70
2021/01/13 08:10:02;;;;;;;;;;;21.40;25.90;;;;;;491070;240;1037;-70
2021/01/13 08:12:04;;;;;;;;;;;21.40;25.90;;;;;;491076;240;1146;-70
2021/01/13 08:14:05;;;;;;;;;;;21.40;25.90;;;;;;491005;240;1185;-70
2021/01/13 08:16:06;;;;;;;;;;;21.40;25.90;;;;;;491056;240;1096;-70
2021/01/13 08:18:12;;;;;;;;;;;21.40;25.90;;;;;;491002;240;1151;-70
2021/01/13 08:20:12;;;;;;;;;;;21.40;26.00;;;;;;490938;242;1399;-70
2021/01/13 08:22:14;;;;;;;;;;;21.40;25.90;;;;;;490914;241;1420;-70
2021/01/13 08:24:19;;;;;;;;;;;21.40;25.90;;;;;;490832;242;2188;-70
2021/01/13 08:26:17;;;;;;;;;;;21.30;25.90;;;;;;490860;241;1480;-70
2021/01/13 08:28:18;;;;;;;;;;;21.30;25.90;;;;;;491022;240;1317;-70
2021/01/13 08:30:19;;;;;;;;;;;21.30;26.00;;;;;;490791;240;1100;-70
2021/01/13 08:32:20;;;;;;;;;;;21.40;26.00;;;;;;490795;240;1144;-70
2021/01/13 08:34:22;;;;;;;;;;;21.40;26.00;;;;;;490724;240;1114;-69
2021/01/13 08:36:23;;;;;;;;;;;21.50;25.90;;;;;;490918;240;1150;-70
2021/01/13 08:38:24;;;;;;;;;;;21.50;25.80;;;;;;490864;240;1218;-70
2021/01/13 08:40:26;;;;;;;;;;;21.60;25.80;;;;;;490994;240;1324;-70
2021/01/13 08:42:29;;;;;;;;;;;21.60;25.80;;;;;;490910;240;1158;-69
2021/01/13 08:44:28;;;;;;;;;;;21.60;25.80;;;;;;490987;241;2141;-69
2021/01/13 08:46:30;;;;;;;;;;;21.60;25.70;;;;;;490841;240;1134;-69
2021/01/13 08:48:31;;;;;;;;;;;21.60;25.70;;;;;;490923;240;1126;-69
2021/01/13 08:50:32;;;;;;;;;;;21.70;25.70;;;;;;490928;240;1108;-69
2021/01/13 08:52:34;;;;;;;;;;;21.70;25.70;;;;;;490735;240;1170;-69
2021/01/13 08:54:35;;;;;;;;;;;21.70;25.70;;;;;;491025;240;1065;-69
2021/01/13 08:56:36;;;;;;;;;;;21.70;25.70;;;;;;491008;240;1302;-70
2021/01/13 08:58:38;;;;;;;;;;;21.70;25.70;;;;;;490908;240;1051;-70
2021/01/13 09:00:39;;;;;;;;;;;21.70;25.60;;;;;;490957;240;1023;-70
2021/01/13 09:02:40;;;;;;;;;;;21.80;25.60;;;;;;490987;240;1060;-70
2021/01/13 09:04:41;;;;;;;;;;;21.80;25.60;;;;;;490891;240;2156;-70
2021/01/13 09:06:43;;;;;;;;;;;21.70;25.50;;;;;;490870;240;1185;-70
2021/01/13 09:08:44;;;;;;;;;;;21.80;25.60;;;;;;490812;240;969;-70
2021/01/13 09:10:46;;;;;;;;;;;21.80;25.60;;;;;;490787;240;1325;-70
2021/01/13 09:12:47;;;;;;;;;;;21.80;25.60;;;;;;490775;240;1174;-70
2021/01/13 09:14:49;;;;;;;;;;;21.80;25.60;;;;;;490860;240;1114;-70
2021/01/13 09:16:50;;;;;;;;;;;21.80;25.60;;;;;;490895;240;1088;-70
2021/01/13 09:18:51;;;;;;;;;;;21.90;25.60;;;;;;490845;240;1037;-70
2021/01/13 09:20:52;;;;;;;;;;;21.80;25.60;;;;;;490798;240;1033;-70
2021/01/13 09:22:54;;;;;;;;;;;21.80;25.60;;;;;;490683;240;1218;-70
2021/01/13 09:24:55;;;;;;;;;;;21.80;25.60;;;;;;490640;240;2192;-70
2021/01/13 09:26:56;;;;;;;;;;;21.80;25.60;;;;;;490768;240;1174;-70
2021/01/13 09:28:57;;;;;;;;;;;21.80;25.70;;;;;;490705;240;1312;-70
2021/01/13 09:30:59;;;;;;;;;;;21.80;25.80;;;;;;490770;240;1086;-70
2021/01/13 09:33:00;;;;;;;;;;;21.80;25.80;;;;;;490697;240;1184;-70
2021/01/13 09:35:01;;;;;;;;;;;21.80;25.80;;;;;;490799;240;1092;-70
2021/01/13 09:37:02;;;;;;;;;;;21.80;25.90;;;;;;491470;240;985;-70
2021/01/13 09:39:04;;;;;;;;;;;21.80;25.90;;;;;;490741;240;1122;-69
2021/01/13 09:41:06;;;;;;;;;;;21.80;25.90;;;;;;490789;240;1146;-69
2021/01/13 09:43:07;;;;;;;;;;;21.80;25.90;;;;;;490763;241;1368;-70
2021/01/13 09:45:08;;;;;;;;;;;21.80;25.90;;;;;;490863;240;2188;-70
2021/01/13 09:47:09;;;;;;;;;;;21.80;25.90;;;;;;490771;240;1072;-70
2021/01/13 09:49:11;;;;;;;;;;;21.90;25.90;;;;;;490796;240;1067;-69
2021/01/13 09:51:12;;;;;;;;;;;21.90;25.80;;;;;;490888;240;1164;-69
2021/01/13 09:53:14;;;;;;;;;;;21.90;25.70;;;;;;490823;240;1080;-70
2021/01/13 09:55:15;;;;;;;;;;;22.00;25.70;;;;;;490655;240;1074;-70
2021/01/13 09:57:16;;;;;;;;;;;22.00;25.70;;;;;;490679;240;1138;-69
2021/01/13 09:59:18;;;;;;;;;;;22.10;25.60;;;;;;490762;240;1006;-72
2021/01/13 10:01:19;;;;;;;;;;;22.10;25.60;;;;;;490584;240;1170;-69
2021/01/13 10:03:20;;;;;;;;;;;22.10;25.60;;;;;;490768;240;1021;-71
2021/01/13 10:05:21;;;;;;;;;;;22.10;25.60;;;;;;490713;240;2199;-70
2021/01/13 10:07:23;;;;;;;;;;;22.10;25.60;;;;;;490657;240;1088;-69
2021/01/13 10:09:24;;;;;;;;;;;22.10;25.60;;;;;;490832;240;989;-70
2021/01/13 10:11:26;;;;;;;;;;;22.10;25.60;;;;;;490837;240;1159;-70
2021/01/13 10:13:27;;;;;;;;;;;22.20;25.60;;;;;;490838;240;1185;-70
2021/01/13 10:15:28;;;;;;;;;;;22.20;25.50;;;;;;490696;240;1208;-69
2021/01/13 10:17:29;;;;;;;;;;;22.20;25.50;;;;;;490738;240;1146;-69
2021/01/13 10:19:31;;;;;;;;;;;22.10;25.50;;;;;;490953;240;1095;-69
2021/01/13 10:21:32;;;;;;;;;;;22.20;25.60;;;;;;490875;240;1141;-69
2021/01/13 10:23:33;;;;;;;;;;;22.10;25.60;;;;;;490910;240;1224;-69
2021/01/13 10:25:35;;;;;;;;;;;22.20;25.50;;;;;;490818;240;2184;-70
2021/01/13 10:27:36;;;;;;;;;;;22.20;25.50;;;;;;490640;240;1160;-69
2021/01/13 10:29:37;;;;;;;;;;;22.20;25.50;;;;;;490503;240;1159;-70
2021/01/13 10:31:38;;;;;;;;;;;22.30;25.40;;;;;;490625;240;1167;-69
2021/01/13 10:33:40;;;;;;;;;;;22.30;25.40;;;;;;490779;240;1098;-70
2021/01/13 10:35:41;;;;;;;;;;;22.30;25.40;;;;;;490892;240;1110;-69
2021/01/13 10:37:47;;;;;;;;;;;22.30;25.40;;;;;;490918;240;1127;-69
2021/01/13 10:39:43;;;;;;;;;;;22.30;25.40;;;;;;490782;242;1411;-70
2021/01/13 10:41:45;;;;;;;;;;;22.40;25.40;;;;;;490853;240;1193;-70
2021/01/13 10:43:46;;;;;;;;;;;22.30;25.40;;;;;;490693;240;1305;-70
2021/01/13 10:45:48;;;;;;;;;;;22.40;25.40;;;;;;490707;240;2192;-70
2021/01/13 10:47:49;;;;;;;;;;;22.30;25.30;;;;;;490718;240;1171;-69
2021/01/13 10:49:50;;;;;;;;;;;22.40;25.30;;;;;;490619;240;1062;-70
2021/01/13 10:51:52;;;;;;;;;;;22.40;25.30;;;;;;490705;240;1114;-70
2021/01/13 10:53:53;;;;;;;;;;;22.40;25.30;;;;;;490820;240;1056;-70
2021/01/13 10:55:54;;;;;;;;;;;22.40;25.30;;;;;;490609;240;1070;-70
2021/01/13 10:57:56;;;;;;;;;;;22.50;25.30;;;;;;490646;240;1192;-70
2021/01/13 10:59:57;;;;;;;;;;;22.50;25.20;;;;;;490844;240;1161;-70
2021/01/13 11:01:58;;;;;;;;;;;22.50;25.20;;;;;;490756;240;1061;-70
2021/01/13 11:04:00;;;;;;;;;;;22.50;25.20;;;;;;490783;240;1044;-70
2021/01/13 11:06:01;;;;;;;;;;;22.50;25.20;;;;;;490774;240;2176;-70
2021/01/13 11:08:02;;;;;;;;;;;22.40;25.20;;;;;;490851;240;1039;-70
2021/01/13 11:10:04;;;;;;;;;;;22.50;25.20;;;;;;490669;240;1066;-70
2021/01/13 11:12:05;;;;;;;;;;;22.50;25.20;;;;;;490578;242;1312;-70
2021/01/13 11:14:08;;;;;;;;;;;22.50;25.20;;;;;;490735;240;1200;-70
2021/01/13 11:16:08;;;;;;;;;;;22.50;25.10;;;;;;490531;240;1296;-69
2021/01/13 11:18:09;;;;;;;;;;;22.50;25.10;;;;;;490721;240;1093;-69
2021/01/13 11:20:10;;;;;;;;;;;22.50;25.10;;;;;;490933;240;1013;-69
2021/01/13 11:22:12;;;;;;;;;;;22.60;25.20;;;;;;490902;240;1076;-69
2021/01/13 11:24:13;;;;;;;;;;;22.60;25.20;;;;;;490814;240;1020;-70
2021/01/13 11:26:15;;;;;;;;;;;22.60;25.20;;;;;;490584;240;2164;-70
2021/01/13 11:28:16;;;;;;;;;;;22.60;25.10;;;;;;490722;240;1204;-70
2021/01/13 11:30:17;;;;;;;;;;;22.60;25.10;;;;;;490937;240;1001;-70
2021/01/13 11:32:19;;;;;;;;;;;22.60;25.10;;;;;;490876;240;1314;-70
2021/01/13 11:34:20;;;;;;;;;;;22.60;25.10;;;;;;490879;240;963;-68
2021/01/13 11:36:23;;;;;;;;;;;22.60;25.10;;;;;;490902;240;1105;-70
2021/01/13 11:38:24;;;;;;;;;;;22.60;25.10;;;;;;490810;240;1175;-70
2021/01/13 11:40:25;;;;;;;;;;;22.60;25.10;;;;;;490893;240;1035;-70
2021/01/13 11:42:26;;;;;;;;;;;22.60;25.00;;;;;;490947;240;1115;-70
2021/01/13 11:44:29;;;;;;;;;;;22.60;25.00;;;;;;490943;240;2188;-70
2021/01/13 11:46:29;;;;;;;;;;;22.60;25.00;;;;;;490762;240;1242;-69
2021/01/13 11:48:31;;;;;;;;;;;22.60;25.00;;;;;;490708;240;1194;-69
2021/01/13 11:50:32;;;;;;;;;;;22.60;25.00;;;;;;490925;240;1081;-69
2021/01/13 11:52:33;;;;;;;;;;;22.60;24.90;;;;;;490939;240;1120;-70
2021/01/13 11:54:35;;;;;;;;;;;22.70;24.90;;;;;;490904;240;1099;-70
2021/01/13 11:56:36;;;;;;;;;;;22.70;24.90;;;;;;490882;240;1111;-70